sensor_id;sensor_type;location;lat;lon;timestamp;temperature;humidity
6738;DHT22;3406;49.902;8.596;2022-07-22T00:02:18;20.80;69.40
6738;DHT22;3406;49.902;8.596;2022-07-22T00:04:44;20.70;69.50
6738;DHT22;3406;49.902;8.596;2022-07-22T00:07:11;20.70;69.70
6738;DHT22;3406;49.902;8.596;2022-07-22T00:09:38;20.60;69.80
6738;DHT22;3406;49.902;8.596;2022-07-22T00:12:06;20.50;70.00
6738;DHT22;3406;49.902;8.596;2022-07-22T00:14:33;20.50;70.10
6738;DHT22;3406;49.902;8.596;2022-07-22T00:17:00;20.40;70.30
6738;DHT22;3406;49.902;8.596;2022-07-22T00:19:26;20.40;70.40
6738;DHT22;3406;49.902;8.596;2022-07-22T00:21:53;20.40;70.50
6738;DHT22;3406;49.902;8.596;2022-07-22T00:24:20;20.30;70.50
6738;DHT22;3406;49.902;8.596;2022-07-22T00:26:46;20.30;70.90
6738;DHT22;3406;49.902;8.596;2022-07-22T00:29:14;20.30;71.00
6738;DHT22;3406;49.902;8.596;2022-07-22T00:31:41;20.20;71.10
6738;DHT22;3406;49.902;8.596;2022-07-22T00:34:07;20.20;71.20
6738;DHT22;3406;49.902;8.596;2022-07-22T00:36:34;20.10;71.40
6738;DHT22;3406;49.902;8.596;2022-07-22T00:39:01;20.10;71.70
6738;DHT22;3406;49.902;8.596;2022-07-22T00:41:28;20.00;71.80
6738;DHT22;3406;49.902;8.596;2022-07-22T00:43:58;19.90;72.00
6738;DHT22;3406;49.902;8.596;2022-07-22T00:46:28;19.90;72.30
6738;DHT22;3406;49.902;8.596;2022-07-22T00:48:55;19.80;72.40
6738;DHT22;3406;49.902;8.596;2022-07-22T00:51:24;19.80;72.60
6738;DHT22;3406;49.902;8.596;2022-07-22T00:53:51;19.80;72.60
6738;DHT22;3406;49.902;8.596;2022-07-22T00:56:18;19.70;72.60
6738;DHT22;3406;49.902;8.596;2022-07-22T00:58:46;19.80;72.80
6738;DHT22;3406;49.902;8.596;2022-07-22T01:01:14;19.70;72.70
6738;DHT22;3406;49.902;8.596;2022-07-22T01:03:42;19.70;72.70
6738;DHT22;3406;49.902;8.596;2022-07-22T01:06:09;19.80;72.80
6738;DHT22;3406;49.902;8.596;2022-07-22T01:08:37;19.70;72.80
6738;DHT22;3406;49.902;8.596;2022-07-22T01:11:09;19.70;72.90
6738;DHT22;3406;49.902;8.596;2022-07-22T01:13:36;19.70;72.90
6738;DHT22;3406;49.902;8.596;2022-07-22T01:16:03;19.70;73.00
6738;DHT22;3406;49.902;8.596;2022-07-22T01:18:30;19.60;73.10
6738;DHT22;3406;49.902;8.596;2022-07-22T01:20:58;19.60;73.20
6738;DHT22;3406;49.902;8.596;2022-07-22T01:23:25;19.50;73.30
6738;DHT22;3406;49.902;8.596;2022-07-22T01:25:51;19.50;73.40
6738;DHT22;3406;49.902;8.596;2022-07-22T01:28:18;19.50;73.60
6738;DHT22;3406;49.902;8.596;2022-07-22T01:30:45;19.50;73.70
6738;DHT22;3406;49.902;8.596;2022-07-22T01:33:12;19.50;73.70
6738;DHT22;3406;49.902;8.596;2022-07-22T01:35:40;19.50;73.80
6738;DHT22;3406;49.902;8.596;2022-07-22T01:38:08;19.50;73.80
6738;DHT22;3406;49.902;8.596;2022-07-22T01:40:35;19.40;73.70
6738;DHT22;3406;49.902;8.596;2022-07-22T01:43:01;19.40;73.70
6738;DHT22;3406;49.902;8.596;2022-07-22T01:45:28;19.40;73.70
6738;DHT22;3406;49.902;8.596;2022-07-22T01:47:55;19.40;73.70
6738;DHT22;3406;49.902;8.596;2022-07-22T01:50:21;19.40;73.80
6738;DHT22;3406;49.902;8.596;2022-07-22T01:52:48;19.40;73.90
6738;DHT22;3406;49.902;8.596;2022-07-22T01:55:17;19.30;74.00
6738;DHT22;3406;49.902;8.596;2022-07-22T01:57:43;19.30;74.20
6738;DHT22;3406;49.902;8.596;2022-07-22T02:00:12;19.20;74.20
6738;DHT22;3406;49.902;8.596;2022-07-22T02:02:38;19.20;74.30
6738;DHT22;3406;49.902;8.596;2022-07-22T02:05:06;19.20;74.50
6738;DHT22;3406;49.902;8.596;2022-07-22T02:07:33;19.20;74.60
6738;DHT22;3406;49.902;8.596;2022-07-22T02:09:59;19.20;74.60
6738;DHT22;3406;49.902;8.596;2022-07-22T02:12:28;19.20;74.70
6738;DHT22;3406;49.902;8.596;2022-07-22T02:14:54;19.10;74.70
6738;DHT22;3406;49.902;8.596;2022-07-22T02:17:21;19.10;74.80
6738;DHT22;3406;49.902;8.596;2022-07-22T02:19:48;19.10;74.80
6738;DHT22;3406;49.902;8.596;2022-07-22T02:22:15;19.00;74.80
6738;DHT22;3406;49.902;8.596;2022-07-22T02:24:41;19.00;74.90
6738;DHT22;3406;49.902;8.596;2022-07-22T02:27:08;19.00;75.00
6738;DHT22;3406;49.902;8.596;2022-07-22T02:29:38;19.00;75.00
6738;DHT22;3406;49.902;8.596;2022-07-22T02:32:04;19.00;75.10
6738;DHT22;3406;49.902;8.596;2022-07-22T02:34:31;19.00;75.20
6738;DHT22;3406;49.902;8.596;2022-07-22T02:36:58;19.00;75.30
6738;DHT22;3406;49.902;8.596;2022-07-22T02:39:24;19.00;75.40
6738;DHT22;3406;49.902;8.596;2022-07-22T02:41:51;19.00;75.50
6738;DHT22;3406;49.902;8.596;2022-07-22T02:44:18;19.00;75.50
6738;DHT22;3406;49.902;8.596;2022-07-22T02:46:46;19.00;75.60
6738;DHT22;3406;49.902;8.596;2022-07-22T02:49:13;19.00;75.70
6738;DHT22;3406;49.902;8.596;2022-07-22T02:51:39;19.00;75.80
6738;DHT22;3406;49.902;8.596;2022-07-22T02:54:06;19.00;75.90
6738;DHT22;3406;49.902;8.596;2022-07-22T02:56:33;19.00;75.90
6738;DHT22;3406;49.902;8.596;2022-07-22T02:59:00;19.00;75.80
6738;DHT22;3406;49.902;8.596;2022-07-22T03:01:26;19.00;75.80
6738;DHT22;3406;49.902;8.596;2022-07-22T03:03:54;19.00;75.80
6738;DHT22;3406;49.902;8.596;2022-07-22T03:06:21;19.00;75.90
6738;DHT22;3406;49.902;8.596;2022-07-22T03:08:48;19.00;75.90
6738;DHT22;3406;49.902;8.596;2022-07-22T03:11:15;19.00;75.90
6738;DHT22;3406;49.902;8.596;2022-07-22T03:13:41;19.00;75.90
6738;DHT22;3406;49.902;8.596;2022-07-22T03:16:08;19.00;76.00
6738;DHT22;3406;49.902;8.596;2022-07-22T03:18:35;19.00;76.10
6738;DHT22;3406;49.902;8.596;2022-07-22T03:21:03;19.00;76.10
6738;DHT22;3406;49.902;8.596;2022-07-22T03:23:30;19.00;76.20
6738;DHT22;3406;49.902;8.596;2022-07-22T03:25:57;19.00;76.30
6738;DHT22;3406;49.902;8.596;2022-07-22T03:28:23;18.90;76.30
6738;DHT22;3406;49.902;8.596;2022-07-22T03:30:51;18.90;76.50
6738;DHT22;3406;49.902;8.596;2022-07-22T03:33:17;18.90;76.60
6738;DHT22;3406;49.902;8.596;2022-07-22T03:35:44;18.80;76.60
6738;DHT22;3406;49.902;8.596;2022-07-22T03:38:12;18.80;76.70
6738;DHT22;3406;49.902;8.596;2022-07-22T03:40:38;18.90;76.80
6738;DHT22;3406;49.902;8.596;2022-07-22T03:43:05;18.90;76.80
6738;DHT22;3406;49.902;8.596;2022-07-22T03:45:31;18.90;76.80
6738;DHT22;3406;49.902;8.596;2022-07-22T03:47:58;18.80;76.70
6738;DHT22;3406;49.902;8.596;2022-07-22T03:50:25;18.80;76.80
6738;DHT22;3406;49.902;8.596;2022-07-22T03:52:52;18.80;76.80
6738;DHT22;3406;49.902;8.596;2022-07-22T03:55:20;18.80;76.90
6738;DHT22;3406;49.902;8.596;2022-07-22T03:57:47;18.80;77.00
6738;DHT22;3406;49.902;8.596;2022-07-22T04:00:14;18.80;77.10
6738;DHT22;3406;49.902;8.596;2022-07-22T04:02:41;18.80;77.10
6738;DHT22;3406;49.902;8.596;2022-07-22T04:05:08;18.80;77.20
6738;DHT22;3406;49.902;8.596;2022-07-22T04:07:34;18.80;77.30
6738;DHT22;3406;49.902;8.596;2022-07-22T04:10:01;18.80;77.30
6738;DHT22;3406;49.902;8.596;2022-07-22T04:12:33;18.70;77.20
6738;DHT22;3406;49.902;8.596;2022-07-22T04:15:00;18.80;77.30
6738;DHT22;3406;49.902;8.596;2022-07-22T04:17:26;18.80;77.30
6738;DHT22;3406;49.902;8.596;2022-07-22T04:19:53;18.80;77.20
6738;DHT22;3406;49.902;8.596;2022-07-22T04:22:20;18.80;77.30
6738;DHT22;3406;49.902;8.596;2022-07-22T04:24:46;18.80;77.40
6738;DHT22;3406;49.902;8.596;2022-07-22T04:27:13;18.80;77.50
6738;DHT22;3406;49.902;8.596;2022-07-22T04:29:41;18.80;77.60
6738;DHT22;3406;49.902;8.596;2022-07-22T04:32:08;18.90;77.70
6738;DHT22;3406;49.902;8.596;2022-07-22T04:34:34;18.90;77.60
6738;DHT22;3406;49.902;8.596;2022-07-22T04:37:01;19.00;77.60
6738;DHT22;3406;49.902;8.596;2022-07-22T04:39:28;19.00;77.60
6738;DHT22;3406;49.902;8.596;2022-07-22T04:41:54;19.00;77.60
6738;DHT22;3406;49.902;8.596;2022-07-22T04:44:21;19.00;77.50
6738;DHT22;3406;49.902;8.596;2022-07-22T04:46:49;19.10;77.60
6738;DHT22;3406;49.902;8.596;2022-07-22T04:49:16;19.10;77.50
6738;DHT22;3406;49.902;8.596;2022-07-22T04:51:42;19.20;77.50
6738;DHT22;3406;49.902;8.596;2022-07-22T04:54:09;19.20;77.40
6738;DHT22;3406;49.902;8.596;2022-07-22T04:56:36;19.20;77.30
6738;DHT22;3406;49.902;8.596;2022-07-22T04:59:02;19.30;77.30
6738;DHT22;3406;49.902;8.596;2022-07-22T05:01:29;19.30;77.30
6738;DHT22;3406;49.902;8.596;2022-07-22T05:03:57;19.40;77.30
6738;DHT22;3406;49.902;8.596;2022-07-22T05:06:24;19.40;77.20
6738;DHT22;3406;49.902;8.596;2022-07-22T05:08:50;19.40;77.00
6738;DHT22;3406;49.902;8.596;2022-07-22T05:11:17;19.40;77.00
6738;DHT22;3406;49.902;8.596;2022-07-22T05:13:44;19.50;77.00
6738;DHT22;3406;49.902;8.596;2022-07-22T05:16:11;19.50;76.90
6738;DHT22;3406;49.902;8.596;2022-07-22T05:18:37;19.50;77.00
6738;DHT22;3406;49.902;8.596;2022-07-22T05:21:05;19.50;76.90
6738;DHT22;3406;49.902;8.596;2022-07-22T05:23:32;19.60;77.00
6738;DHT22;3406;49.902;8.596;2022-07-22T05:25:59;19.50;76.70
6738;DHT22;3406;49.902;8.596;2022-07-22T05:28:25;19.60;76.80
6738;DHT22;3406;49.902;8.596;2022-07-22T05:30:52;19.60;76.80
6738;DHT22;3406;49.902;8.596;2022-07-22T05:33:18;19.60;76.80
6738;DHT22;3406;49.902;8.596;2022-07-22T05:35:45;19.60;76.70
6738;DHT22;3406;49.902;8.596;2022-07-22T05:38:13;19.60;76.50
6738;DHT22;3406;49.902;8.596;2022-07-22T05:40:40;19.60;76.50
6738;DHT22;3406;49.902;8.596;2022-07-22T05:43:06;19.60;76.50
6738;DHT22;3406;49.902;8.596;2022-07-22T05:45:33;19.50;77.20
6738;DHT22;3406;49.902;8.596;2022-07-22T05:48:00;19.40;77.20
6738;DHT22;3406;49.902;8.596;2022-07-22T05:50:27;19.40;76.60
6738;DHT22;3406;49.902;8.596;2022-07-22T05:52:54;19.40;76.70
6738;DHT22;3406;49.902;8.596;2022-07-22T05:55:22;19.40;76.70
6738;DHT22;3406;49.902;8.596;2022-07-22T05:57:49;19.30;76.70
6738;DHT22;3406;49.902;8.596;2022-07-22T06:00:16;19.30;76.80
6738;DHT22;3406;49.902;8.596;2022-07-22T06:02:43;19.30;76.90
6738;DHT22;3406;49.902;8.596;2022-07-22T06:05:09;19.40;77.00
6738;DHT22;3406;49.902;8.596;2022-07-22T06:07:36;19.40;76.90
6738;DHT22;3406;49.902;8.596;2022-07-22T06:10:03;19.50;76.80
6738;DHT22;3406;49.902;8.596;2022-07-22T06:12:31;19.60;76.90
6738;DHT22;3406;49.902;8.596;2022-07-22T06:14:58;19.60;76.70
6738;DHT22;3406;49.902;8.596;2022-07-22T06:17:25;19.70;76.70
6738;DHT22;3406;49.902;8.596;2022-07-22T06:19:51;19.70;76.50
6738;DHT22;3406;49.902;8.596;2022-07-22T06:22:18;19.80;76.50
6738;DHT22;3406;49.902;8.596;2022-07-22T06:24:45;19.80;76.50
6738;DHT22;3406;49.902;8.596;2022-07-22T06:27:12;19.80;76.60
6738;DHT22;3406;49.902;8.596;2022-07-22T06:29:40;19.90;76.70
6738;DHT22;3406;49.902;8.596;2022-07-22T06:32:07;20.10;76.60
6738;DHT22;3406;49.902;8.596;2022-07-22T06:34:33;20.30;76.50
6738;DHT22;3406;49.902;8.596;2022-07-22T06:37:00;20.30;76.20
6738;DHT22;3406;49.902;8.596;2022-07-22T06:39:27;20.30;75.90
6738;DHT22;3406;49.902;8.596;2022-07-22T06:41:53;20.40;75.90
6738;DHT22;3406;49.902;8.596;2022-07-22T06:44:20;20.40;75.80
6738;DHT22;3406;49.902;8.596;2022-07-22T06:46:48;20.50;75.80
6738;DHT22;3406;49.902;8.596;2022-07-22T06:49:15;20.50;75.60
6738;DHT22;3406;49.902;8.596;2022-07-22T06:51:41;20.50;75.60
6738;DHT22;3406;49.902;8.596;2022-07-22T06:54:08;20.40;75.60
6738;DHT22;3406;49.902;8.596;2022-07-22T06:56:34;20.40;75.80
6738;DHT22;3406;49.902;8.596;2022-07-22T06:59:01;20.60;76.00
6738;DHT22;3406;49.902;8.596;2022-07-22T07:01:28;20.80;75.70
6738;DHT22;3406;49.902;8.596;2022-07-22T07:03:56;21.10;75.40
6738;DHT22;3406;49.902;8.596;2022-07-22T07:06:23;21.30;74.60
6738;DHT22;3406;49.902;8.596;2022-07-22T07:08:49;21.50;74.30
6738;DHT22;3406;49.902;8.596;2022-07-22T07:11:16;21.70;73.80
6738;DHT22;3406;49.902;8.596;2022-07-22T07:13:43;21.90;73.30
6738;DHT22;3406;49.902;8.596;2022-07-22T07:16:10;22.10;73.10
6738;DHT22;3406;49.902;8.596;2022-07-22T07:18:36;22.30;72.40
6738;DHT22;3406;49.902;8.596;2022-07-22T07:21:05;22.60;71.70
6738;DHT22;3406;49.902;8.596;2022-07-22T07:23:31;22.70;70.60
6738;DHT22;3406;49.902;8.596;2022-07-22T07:25:58;22.60;70.40
6738;DHT22;3406;49.902;8.596;2022-07-22T07:28:25;22.60;70.30
6738;DHT22;3406;49.902;8.596;2022-07-22T07:30:52;22.60;70.30
6738;DHT22;3406;49.902;8.596;2022-07-22T07:33:19;22.70;70.00
6738;DHT22;3406;49.902;8.596;2022-07-22T07:35:45;22.80;69.70
6738;DHT22;3406;49.902;8.596;2022-07-22T07:38:13;22.90;69.60
6738;DHT22;3406;49.902;8.596;2022-07-22T07:40:40;23.00;69.30
6738;DHT22;3406;49.902;8.596;2022-07-22T07:43:07;23.30;69.10
6738;DHT22;3406;49.902;8.596;2022-07-22T07:45:33;23.40;68.00
6738;DHT22;3406;49.902;8.596;2022-07-22T07:48:02;23.40;67.90
6738;DHT22;3406;49.902;8.596;2022-07-22T07:50:29;23.30;67.70
6738;DHT22;3406;49.902;8.596;2022-07-22T07:52:55;23.20;67.50
6738;DHT22;3406;49.902;8.596;2022-07-22T07:55:24;23.40;67.60
6738;DHT22;3406;49.902;8.596;2022-07-22T07:57:51;23.50;67.00
6738;DHT22;3406;49.902;8.596;2022-07-22T08:00:21;23.60;66.00
6738;DHT22;3406;49.902;8.596;2022-07-22T08:02:48;23.60;65.60
6738;DHT22;3406;49.902;8.596;2022-07-22T08:05:15;23.50;65.40
6738;DHT22;3406;49.902;8.596;2022-07-22T08:07:42;23.60;65.50
6738;DHT22;3406;49.902;8.596;2022-07-22T08:10:09;23.50;65.40
6738;DHT22;3406;49.902;8.596;2022-07-22T08:12:38;23.50;65.50
6738;DHT22;3406;49.902;8.596;2022-07-22T08:15:06;23.50;65.30
6738;DHT22;3406;49.902;8.596;2022-07-22T08:17:33;23.60;65.50
6738;DHT22;3406;49.902;8.596;2022-07-22T08:20:00;23.80;65.00
6738;DHT22;3406;49.902;8.596;2022-07-22T08:22:26;23.90;64.50
6738;DHT22;3406;49.902;8.596;2022-07-22T08:24:53;24.10;64.30
6738;DHT22;3406;49.902;8.596;2022-07-22T08:27:20;24.20;63.80
6738;DHT22;3406;49.902;8.596;2022-07-22T08:29:48;24.40;63.60
6738;DHT22;3406;49.902;8.596;2022-07-22T08:32:15;24.50;63.30
6738;DHT22;3406;49.902;8.596;2022-07-22T08:34:41;24.70;62.70
6738;DHT22;3406;49.902;8.596;2022-07-22T08:37:08;24.80;62.20
6738;DHT22;3406;49.902;8.596;2022-07-22T08:39:35;24.90;62.00
6738;DHT22;3406;49.902;8.596;2022-07-22T08:42:02;25.00;61.40
6738;DHT22;3406;49.902;8.596;2022-07-22T08:44:30;25.00;61.30
6738;DHT22;3406;49.902;8.596;2022-07-22T08:46:58;25.00;60.90
6738;DHT22;3406;49.902;8.596;2022-07-22T08:49:25;24.90;60.20
6738;DHT22;3406;49.902;8.596;2022-07-22T08:51:53;24.80;60.30
6738;DHT22;3406;49.902;8.596;2022-07-22T08:54:19;24.90;60.50
6738;DHT22;3406;49.902;8.596;2022-07-22T08:56:47;25.00;60.40
6738;DHT22;3406;49.902;8.596;2022-07-22T08:59:13;24.90;60.00
6738;DHT22;3406;49.902;8.596;2022-07-22T09:02:02;24.90;60.00
6738;DHT22;3406;49.902;8.596;2022-07-22T09:04:29;25.00;59.70
6738;DHT22;3406;49.902;8.596;2022-07-22T09:06:56;25.10;59.40
6738;DHT22;3406;49.902;8.596;2022-07-22T09:09:30;25.20;59.30
6738;DHT22;3406;49.902;8.596;2022-07-22T09:12:04;25.30;59.10
6738;DHT22;3406;49.902;8.596;2022-07-22T09:14:43;25.40;58.80
6738;DHT22;3406;49.902;8.596;2022-07-22T09:17:24;25.50;58.40
6738;DHT22;3406;49.902;8.596;2022-07-22T09:19:51;25.50;58.30
6738;DHT22;3406;49.902;8.596;2022-07-22T09:22:34;25.50;58.20
6738;DHT22;3406;49.902;8.596;2022-07-22T09:25:16;25.60;58.10
6738;DHT22;3406;49.902;8.596;2022-07-22T09:27:44;25.60;57.90
6738;DHT22;3406;49.902;8.596;2022-07-22T09:30:12;25.70;57.70
6738;DHT22;3406;49.902;8.596;2022-07-22T09:32:42;25.80;57.30
6738;DHT22;3406;49.902;8.596;2022-07-22T09:35:10;25.80;57.30
6738;DHT22;3406;49.902;8.596;2022-07-22T09:37:37;25.80;57.00
6738;DHT22;3406;49.902;8.596;2022-07-22T09:40:14;25.80;56.80
6738;DHT22;3406;49.902;8.596;2022-07-22T09:42:47;25.80;56.60
6738;DHT22;3406;49.902;8.596;2022-07-22T09:45:14;25.80;56.60
6738;DHT22;3406;49.902;8.596;2022-07-22T09:47:43;25.80;56.50
6738;DHT22;3406;49.902;8.596;2022-07-22T09:50:21;25.90;56.20
6738;DHT22;3406;49.902;8.596;2022-07-22T09:52:49;25.90;55.90
6738;DHT22;3406;49.902;8.596;2022-07-22T09:55:18;25.90;55.90
6738;DHT22;3406;49.902;8.596;2022-07-22T09:57:45;26.00;55.50
6738;DHT22;3406;49.902;8.596;2022-07-22T10:00:14;26.10;55.40
6738;DHT22;3406;49.902;8.596;2022-07-22T10:02:45;26.20;55.40
6738;DHT22;3406;49.902;8.596;2022-07-22T10:05:14;26.30;55.20
6738;DHT22;3406;49.902;8.596;2022-07-22T10:07:42;26.40;54.70
6738;DHT22;3406;49.902;8.596;2022-07-22T10:10:10;26.50;54.40
6738;DHT22;3406;49.902;8.596;2022-07-22T10:12:37;26.50;54.50
6738;DHT22;3406;49.902;8.596;2022-07-22T10:15:06;26.60;54.30
6738;DHT22;3406;49.902;8.596;2022-07-22T10:17:35;26.70;54.00
6738;DHT22;3406;49.902;8.596;2022-07-22T10:20:04;26.70;53.70
6738;DHT22;3406;49.902;8.596;2022-07-22T10:22:51;26.70;53.70
6738;DHT22;3406;49.902;8.596;2022-07-22T10:25:19;26.70;53.60
6738;DHT22;3406;49.902;8.596;2022-07-22T10:27:49;26.70;53.30
6738;DHT22;3406;49.902;8.596;2022-07-22T10:30:20;26.60;53.20
6738;DHT22;3406;49.902;8.596;2022-07-22T10:33:02;26.70;54.00
6738;DHT22;3406;49.902;8.596;2022-07-22T10:35:31;26.80;53.00
6738;DHT22;3406;49.902;8.596;2022-07-22T10:38:04;26.80;52.80
6738;DHT22;3406;49.902;8.596;2022-07-22T10:40:32;26.80;52.80
6738;DHT22;3406;49.902;8.596;2022-07-22T10:43:12;26.80;52.50
6738;DHT22;3406;49.902;8.596;2022-07-22T10:45:42;26.90;52.30
6738;DHT22;3406;49.902;8.596;2022-07-22T10:48:12;27.00;52.30
6738;DHT22;3406;49.902;8.596;2022-07-22T10:50:45;27.10;51.90
6738;DHT22;3406;49.902;8.596;2022-07-22T10:53:17;27.10;51.80
6738;DHT22;3406;49.902;8.596;2022-07-22T10:56:05;27.30;51.60
6738;DHT22;3406;49.902;8.596;2022-07-22T10:58:47;27.30;51.40
6738;DHT22;3406;49.902;8.596;2022-07-22T11:01:17;27.40;51.40
6738;DHT22;3406;49.902;8.596;2022-07-22T11:03:46;27.50;51.10
6738;DHT22;3406;49.902;8.596;2022-07-22T11:06:21;27.60;51.00
6738;DHT22;3406;49.902;8.596;2022-07-22T11:08:50;27.70;50.90
6738;DHT22;3406;49.902;8.596;2022-07-22T11:11:18;27.80;50.60
6738;DHT22;3406;49.902;8.596;2022-07-22T11:13:45;27.80;50.20
6738;DHT22;3406;49.902;8.596;2022-07-22T11:16:17;27.80;49.90
6738;DHT22;3406;49.902;8.596;2022-07-22T11:18:48;27.80;50.10
6738;DHT22;3406;49.902;8.596;2022-07-22T11:21:18;27.90;50.00
6738;DHT22;3406;49.902;8.596;2022-07-22T11:23:48;28.00;49.40
6738;DHT22;3406;49.902;8.596;2022-07-22T11:26:16;28.10;49.20
6738;DHT22;3406;49.902;8.596;2022-07-22T11:28:44;28.20;48.80
6738;DHT22;3406;49.902;8.596;2022-07-22T11:31:14;28.30;48.60
6738;DHT22;3406;49.902;8.596;2022-07-22T11:33:41;28.30;48.30
6738;DHT22;3406;49.902;8.596;2022-07-22T11:36:09;28.40;48.30
6738;DHT22;3406;49.902;8.596;2022-07-22T11:38:46;28.50;48.20
6738;DHT22;3406;49.902;8.596;2022-07-22T11:41:13;28.60;47.90
6738;DHT22;3406;49.902;8.596;2022-07-22T11:43:41;28.60;47.80
6738;DHT22;3406;49.902;8.596;2022-07-22T11:46:08;28.60;47.30
6738;DHT22;3406;49.902;8.596;2022-07-22T11:48:35;28.60;47.30
6738;DHT22;3406;49.902;8.596;2022-07-22T11:51:03;28.60;47.20
6738;DHT22;3406;49.902;8.596;2022-07-22T11:53:30;28.60;46.90
6738;DHT22;3406;49.902;8.596;2022-07-22T11:55:59;28.60;46.80
6738;DHT22;3406;49.902;8.596;2022-07-22T11:58:36;28.60;46.70
6738;DHT22;3406;49.902;8.596;2022-07-22T12:01:04;28.70;46.50
6738;DHT22;3406;49.902;8.596;2022-07-22T12:03:32;28.80;46.30
6738;DHT22;3406;49.902;8.596;2022-07-22T12:06:00;28.90;45.80
6738;DHT22;3406;49.902;8.596;2022-07-22T12:08:26;29.00;45.50
6738;DHT22;3406;49.902;8.596;2022-07-22T12:10:55;29.10;45.60
6738;DHT22;3406;49.902;8.596;2022-07-22T12:13:27;29.10;45.00
6738;DHT22;3406;49.902;8.596;2022-07-22T12:15:54;29.10;44.90
6738;DHT22;3406;49.902;8.596;2022-07-22T12:18:22;29.20;44.90
6738;DHT22;3406;49.902;8.596;2022-07-22T12:20:51;29.20;45.00
6738;DHT22;3406;49.902;8.596;2022-07-22T12:23:18;29.30;44.80
6738;DHT22;3406;49.902;8.596;2022-07-22T12:25:56;29.40;44.50
6738;DHT22;3406;49.902;8.596;2022-07-22T12:28:25;29.40;44.40
6738;DHT22;3406;49.902;8.596;2022-07-22T12:30:54;29.40;44.50
6738;DHT22;3406;49.902;8.596;2022-07-22T12:33:22;29.50;44.50
6738;DHT22;3406;49.902;8.596;2022-07-22T12:35:59;29.60;44.40
6738;DHT22;3406;49.902;8.596;2022-07-22T12:38:26;29.70;43.90
6738;DHT22;3406;49.902;8.596;2022-07-22T12:40:53;29.60;43.80
6738;DHT22;3406;49.902;8.596;2022-07-22T12:43:25;29.70;43.70
6738;DHT22;3406;49.902;8.596;2022-07-22T12:45:52;29.80;43.70
6738;DHT22;3406;49.902;8.596;2022-07-22T12:48:19;29.90;43.80
6738;DHT22;3406;49.902;8.596;2022-07-22T12:50:54;29.90;43.10
6738;DHT22;3406;49.902;8.596;2022-07-22T12:53:22;29.90;43.30
6738;DHT22;3406;49.902;8.596;2022-07-22T12:55:51;29.90;43.00
6738;DHT22;3406;49.902;8.596;2022-07-22T12:58:20;29.90;43.20
6738;DHT22;3406;49.902;8.596;2022-07-22T13:00:50;29.90;43.20
6738;DHT22;3406;49.902;8.596;2022-07-22T13:03:18;30.00;43.30
6738;DHT22;3406;49.902;8.596;2022-07-22T13:05:46;30.20;43.20
6738;DHT22;3406;49.902;8.596;2022-07-22T13:08:13;30.40;43.00
6738;DHT22;3406;49.902;8.596;2022-07-22T13:10:39;30.50;42.90
6738;DHT22;3406;49.902;8.596;2022-07-22T13:13:06;30.60;42.70
6738;DHT22;3406;49.902;8.596;2022-07-22T13:15:33;30.60;42.80
6738;DHT22;3406;49.902;8.596;2022-07-22T13:18:02;30.70;42.30
6738;DHT22;3406;49.902;8.596;2022-07-22T13:20:28;30.70;42.30
6738;DHT22;3406;49.902;8.596;2022-07-22T13:22:55;30.70;42.30
6738;DHT22;3406;49.902;8.596;2022-07-22T13:25:22;30.70;42.20
6738;DHT22;3406;49.902;8.596;2022-07-22T13:27:51;30.80;42.40
6738;DHT22;3406;49.902;8.596;2022-07-22T13:30:18;30.90;42.20
6738;DHT22;3406;49.902;8.596;2022-07-22T13:32:45;30.90;41.90
6738;DHT22;3406;49.902;8.596;2022-07-22T13:35:13;31.00;41.80
6738;DHT22;3406;49.902;8.596;2022-07-22T13:37:39;30.90;41.70
6738;DHT22;3406;49.902;8.596;2022-07-22T13:40:08;30.90;41.90
6738;DHT22;3406;49.902;8.596;2022-07-22T13:42:34;31.00;41.90
6738;DHT22;3406;49.902;8.596;2022-07-22T13:45:01;31.00;41.70
6738;DHT22;3406;49.902;8.596;2022-07-22T13:47:29;31.10;41.90
6738;DHT22;3406;49.902;8.596;2022-07-22T13:49:56;31.20;41.80
6738;DHT22;3406;49.902;8.596;2022-07-22T13:52:24;31.20;41.30
6738;DHT22;3406;49.902;8.596;2022-07-22T13:54:51;31.20;41.50
6738;DHT22;3406;49.902;8.596;2022-07-22T13:57:17;31.20;41.40
6738;DHT22;3406;49.902;8.596;2022-07-22T13:59:45;31.20;41.30
6738;DHT22;3406;49.902;8.596;2022-07-22T14:02:12;31.20;41.40
6738;DHT22;3406;49.902;8.596;2022-07-22T14:04:38;31.30;42.00
6738;DHT22;3406;49.902;8.596;2022-07-22T14:07:05;31.30;41.20
6738;DHT22;3406;49.902;8.596;2022-07-22T14:09:33;31.20;41.00
6738;DHT22;3406;49.902;8.596;2022-07-22T14:12:00;31.10;41.00
6738;DHT22;3406;49.902;8.596;2022-07-22T14:14:26;31.10;41.00
6738;DHT22;3406;49.902;8.596;2022-07-22T14:16:53;31.10;40.80
6738;DHT22;3406;49.902;8.596;2022-07-22T14:19:19;31.20;41.00
6738;DHT22;3406;49.902;8.596;2022-07-22T14:21:48;31.20;40.70
6738;DHT22;3406;49.902;8.596;2022-07-22T14:24:15;31.40;40.80
6738;DHT22;3406;49.902;8.596;2022-07-22T14:26:43;31.50;40.80
6738;DHT22;3406;49.902;8.596;2022-07-22T14:29:09;31.60;40.70
6738;DHT22;3406;49.902;8.596;2022-07-22T14:31:36;31.60;40.50
6738;DHT22;3406;49.902;8.596;2022-07-22T14:34:03;31.80;40.50
6738;DHT22;3406;49.902;8.596;2022-07-22T14:36:29;32.00;40.30
6738;DHT22;3406;49.902;8.596;2022-07-22T14:38:56;32.10;40.60
6738;DHT22;3406;49.902;8.596;2022-07-22T14:41:23;32.10;39.50
6738;DHT22;3406;49.902;8.596;2022-07-22T14:43:51;32.00;39.80
6738;DHT22;3406;49.902;8.596;2022-07-22T14:46:17;32.00;39.80
6738;DHT22;3406;49.902;8.596;2022-07-22T14:48:44;32.00;39.80
6738;DHT22;3406;49.902;8.596;2022-07-22T14:51:11;31.90;39.60
6738;DHT22;3406;49.902;8.596;2022-07-22T14:53:38;31.90;39.70
6738;DHT22;3406;49.902;8.596;2022-07-22T14:56:04;31.90;39.70
6738;DHT22;3406;49.902;8.596;2022-07-22T14:58:31;31.90;39.70
6738;DHT22;3406;49.902;8.596;2022-07-22T15:00:59;32.00;39.70
6738;DHT22;3406;49.902;8.596;2022-07-22T15:03:26;32.00;39.50
6738;DHT22;3406;49.902;8.596;2022-07-22T15:05:52;32.00;39.50
6738;DHT22;3406;49.902;8.596;2022-07-22T15:08:19;32.00;39.40
6738;DHT22;3406;49.902;8.596;2022-07-22T15:10:46;32.10;39.40
6738;DHT22;3406;49.902;8.596;2022-07-22T15:13:12;32.30;39.50
6738;DHT22;3406;49.902;8.596;2022-07-22T15:15:39;32.40;39.30
6738;DHT22;3406;49.902;8.596;2022-07-22T15:18:07;32.60;39.00
6738;DHT22;3406;49.902;8.596;2022-07-22T15:20:34;32.50;38.60
6738;DHT22;3406;49.902;8.596;2022-07-22T15:23:02;32.30;38.70
6738;DHT22;3406;49.902;8.596;2022-07-22T15:25:29;32.10;39.00
6738;DHT22;3406;49.902;8.596;2022-07-22T15:27:56;32.10;39.60
6738;DHT22;3406;49.902;8.596;2022-07-22T15:30:23;32.10;39.20
6738;DHT22;3406;49.902;8.596;2022-07-22T15:32:50;32.10;39.20
6738;DHT22;3406;49.902;8.596;2022-07-22T15:35:18;32.20;39.10
6738;DHT22;3406;49.902;8.596;2022-07-22T15:37:45;32.20;39.00
6738;DHT22;3406;49.902;8.596;2022-07-22T15:40:12;32.10;39.00
6738;DHT22;3406;49.902;8.596;2022-07-22T15:42:39;32.20;39.10
6738;DHT22;3406;49.902;8.596;2022-07-22T15:45:06;32.30;39.00
6738;DHT22;3406;49.902;8.596;2022-07-22T15:47:34;32.30;39.00
6738;DHT22;3406;49.902;8.596;2022-07-22T15:50:00;32.30;38.80
6738;DHT22;3406;49.902;8.596;2022-07-22T15:52:28;32.30;38.80
6738;DHT22;3406;49.902;8.596;2022-07-22T15:54:55;32.20;38.70
6738;DHT22;3406;49.902;8.596;2022-07-22T15:57:22;32.20;38.90
6738;DHT22;3406;49.902;8.596;2022-07-22T16:00:07;32.20;38.90
6738;DHT22;3406;49.902;8.596;2022-07-22T16:02:34;32.10;38.90
6738;DHT22;3406;49.902;8.596;2022-07-22T16:05:00;32.00;39.00
6738;DHT22;3406;49.902;8.596;2022-07-22T16:07:29;32.10;39.10